Time,TemperatureF,DewpointF,PressureIn,WindDirection,WindDirectionDegrees,WindSpeedMPH,WindSpeedGustMPH,Humidity,HourlyPrecipIn,Conditions,Clouds,dailyrainin,SoftwareType,DateUTC
2013-09-04 00:01:00,74.7,74.7,29.97,WSW,239,5.0,6.0,100,0.00,,---,0.00,VWS V14.01,2013-09-04 04:01:00,
2013-09-04 00:02:00,74.6,74.6,29.96,SW,230,4.0,6.0,100,0.00,,---,0.00,VWS V14.01,2013-09-04 04:02:00,
2013-09-04 00:07:00,74.4,74.4,29.97,WSW,243,6.0,8.0,100,0.00,,---,0.00,VWS V14.01,2013-09-04 04:07:00,
2013-09-04 00:12:00,74.3,74.3,29.97,WSW,256,5.0,8.0,100,0.00,,---,0.00,VWS V14.01,2013-09-04 04:12:00,
2013-09-04 00:17:00,74.1,74.1,29.96,WSW,249,3.0,8.0,100,0.00,,---,0.00,VWS V14.01,2013-09-04 04:17:00,
2013-09-04 00:22:00,73.9,73.9,29.96,West,264,5.0,8.0,100,0.00,,---,0.00,VWS V14.01,2013-09-04 04:22:00,
2013-09-04 00:27:00,73.9,73.9,29.97,WSW,258,3.0,8.0,100,0.00,,---,0.00,VWS V14.01,2013-09-04 04:27:00,
2013-09-04 00:32:00,73.8,73.8,29.96,WSW,256,3.0,7.0,100,0.00,,---,0.00,VWS V14.01,2013-09-04 04:32:00,
2013-09-04 00:37:00,73.7,73.7,29.97,WSW,255,5.0,7.0,100,0.00,,---,0.00,VWS V14.01,2013-09-04 04:37:00,
2013-09-04 00:42:00,73.6,73.6,29.97,WSW,258,3.0,7.0,100,0.00,,---,0.00,VWS V14.01,2013-09-04 04:42:00,
2013-09-04 00:47:00,73.6,73.6,29.97,West,269,4.0,7.0,100,0.00,,---,0.00,VWS V14.01,2013-09-04 04:47:00,
2013-09-04 00:52:00,73.6,73.6,29.97,West,272,4.0,7.0,100,0.00,,---,0.00,VWS V14.01,2013-09-04 04:52:00,
2013-09-04 00:57:00,73.6,73.6,29.97,West,281,3.0,7.0,100,0.00,,---,0.00,VWS V14.01,2013-09-04 04:57:00,
2013-09-04 01:02:00,73.6,73.6,29.98,West,280,6.0,7.0,100,0.00,,---,0.00,VWS V14.01,2013-09-04 05:02:00,
2013-09-04 01:07:00,73.6,73.6,29.98,West,280,3.0,7.0,100,0.00,,---,0.00,VWS V14.01,2013-09-04 05:07:00,
2013-09-04 01:12:00,73.7,73.7,29.98,West,280,4.0,7.0,100,0.00,,---,0.00,VWS V14.01,2013-09-04 05:12:00,
2013-09-04 01:17:00,73.7,73.7,29.99,West,281,3.0,7.0,100,0.00,,---,0.00,VWS V14.01,2013-09-04 05:17:00,
2013-09-04 01:21:00,73.7,73.7,29.98,West,281,2.0,7.0,100,0.00,,---,0.00,VWS V14.01,2013-09-04 05:21:00,
2013-09-04 01:26:00,73.7,73.7,29.99,West,281,3.0,7.0,100,0.00,,---,0.00,VWS V14.01,2013-09-04 05:26:00,
2013-09-04 01:31:00,73.8,73.8,29.98,West,281,0.0,3.0,100,0.00,,---,0.00,VWS V14.01,2013-09-04 05:31:00,
2013-09-04 01:36:00,73.8,73.8,29.99,West,281,0.0,3.0,100,0.00,,---,0.00,VWS V14.01,2013-09-04 05:36:00,
2013-09-04 01:41:00,73.9,73.9,29.98,West,281,2.0,4.0,100,0.00,,---,0.00,VWS V14.01,2013-09-04 05:41:00,
2013-09-04 01:46:00,73.9,73.9,29.99,West,280,0.0,5.0,100,0.00,,---,0.00,VWS V14.01,2013-09-04 05:46:00,
2013-09-04 01:51:00,74.0,74.0,29.99,NNW,332,0.0,5.0,100,0.00,,---,1.48,VWS V14.01,2013-09-04 05:51:00,
2013-09-04 01:56:00,74.0,74.0,29.98,North,0,1.0,5.0,100,0.00,,---,0.00,VWS V14.01,2013-09-04 05:56:00,
2013-09-04 02:01:00,73.9,73.9,29.98,North,0,0.0,0.0,100,0.00,,---,0.00,VWS V14.01,2013-09-04 06:01:00,
2013-09-04 02:06:00,73.9,73.9,29.98,North,0,1.0,2.0,100,0.00,,---,0.00,VWS V14.01,2013-09-04 06:06:00,
2013-09-04 02:11:00,73.8,73.8,29.98,North,3,0.0,2.0,100,0.00,,---,0.00,VWS V14.01,2013-09-04 06:11:00,
2013-09-04 02:16:00,73.6,73.6,29.98,North,359,0.0,3.0,100,0.00,,---,0.00,VWS V14.01,2013-09-04 06:16:00,
2013-09-04 02:21:00,73.5,73.5,29.98,North,0,1.0,3.0,100,0.00,,---,0.00,VWS V14.01,2013-09-04 06:21:00,
2013-09-04 02:26:00,73.4,73.4,29.98,North,0,0.0,3.0,100,0.00,,---,0.00,VWS V14.01,2013-09-04 06:26:00,
2013-09-04 02:31:00,73.3,73.3,29.97,North,357,1.0,2.0,100,0.00,,---,0.00,VWS V14.01,2013-09-04 06:31:00,
2013-09-04 02:36:00,73.2,73.2,29.97,North,356,2.0,3.0,100,0.00,,---,0.00,VWS V14.01,2013-09-04 06:36:00,
2013-09-04 02:41:00,73.2,73.2,29.98,North,352,1.0,4.0,100,0.00,,---,0.00,VWS V14.01,2013-09-04 06:41:00,
2013-09-04 02:46:00,73.1,73.1,29.97,North,350,2.0,4.0,100,0.00,,---,0.00,VWS V14.01,2013-09-04 06:46:00,
2013-09-04 02:51:00,73.1,73.1,29.97,North,352,2.0,4.0,100,0.00,,---,0.00,VWS V14.01,2013-09-04 06:51:00,
2013-09-04 02:56:00,73.0,73.0,29.97,North,357,1.0,4.0,100,0.00,,---,0.00,VWS V14.01,2013-09-04 06:56:00,
2013-09-04 03:01:00,72.9,72.9,29.97,North,0,1.0,2.0,100,0.00,,---,0.00,VWS V14.01,2013-09-04 07:01:00,
2013-09-04 03:06:00,72.8,72.8,29.97,North,359,1.0,2.0,100,0.00,,---,0.00,VWS V14.01,2013-09-04 07:06:00,
2013-09-04 03:11:00,72.8,72.8,29.97,North,357,2.0,3.0,100,0.00,,---,0.00,VWS V14.01,2013-09-04 07:11:00,
2013-09-04 03:16:00,72.7,72.7,29.97,North,358,1.0,3.0,100,0.00,,---,0.00,VWS V14.01,2013-09-04 07:16:00,
2013-09-04 03:21:00,72.7,72.7,29.98,North,359,1.0,3.0,100,0.00,,---,0.00,VWS V14.01,2013-09-04 07:21:00,
2013-09-04 03:26:00,72.5,72.5,29.97,North,0,1.0,3.0,100,0.00,,---,0.00,VWS V14.01,2013-09-04 07:26:00,
2013-09-04 03:31:00,72.5,72.5,29.97,North,0,0.0,2.0,100,0.00,,---,0.00,VWS V14.01,2013-09-04 07:31:00,
2013-09-04 03:36:00,72.4,72.4,29.97,North,0,0.0,4.0,100,0.00,,---,0.00,VWS V14.01,2013-09-04 07:36:00,
2013-09-04 03:41:00,72.3,72.3,29.98,North,0,1.0,4.0,100,0.00,,---,0.00,VWS V14.01,2013-09-04 07:41:00,
2013-09-04 03:46:00,72.3,72.3,29.97,North,0,2.0,4.0,100,0.00,,---,0.00,VWS V14.01,2013-09-04 07:46:00,
2013-09-04 03:51:00,72.2,72.2,29.97,North,1,2.0,4.0,100,0.00,,---,0.00,VWS V14.01,2013-09-04 07:51:00,
2013-09-04 03:56:00,72.2,72.2,29.97,North,1,3.0,4.0,100,0.00,,---,0.00,VWS V14.01,2013-09-04 07:56:00,
2013-09-04 04:01:00,72.1,72.1,29.98,North,8,2.0,4.0,100,0.00,,---,0.00,VWS V14.01,2013-09-04 08:01:00,
2013-09-04 04:06:00,72.1,72.1,29.98,North,7,4.0,5.0,100,0.00,,---,0.00,VWS V14.01,2013-09-04 08:06:00,
2013-09-04 04:33:00,71.8,71.8,29.99,North,0,1.0,2.0,100,0.00,,---,0.00,VWS V14.01,2013-09-04 08:33:00,
2013-09-04 04:38:00,71.9,71.9,29.99,North,7,2.0,3.0,100,0.00,,---,0.00,VWS V14.01,2013-09-04 08:38:00,
2013-09-04 04:43:00,71.8,71.8,29.99,North,0,2.0,5.0,100,0.00,,---,0.00,VWS V14.01,2013-09-04 08:43:00,
2013-09-04 04:48:00,71.8,71.8,29.99,North,7,2.0,5.0,100,0.00,,---,0.00,VWS V14.01,2013-09-04 08:48:00,
2013-09-04 04:53:00,71.8,71.8,29.99,North,0,1.0,5.0,100,0.00,,---,0.00,VWS V14.01,2013-09-04 08:53:00,
2013-09-04 04:58:00,71.8,71.8,30.00,North,5,3.0,5.0,100,0.00,,---,0.00,VWS V14.01,2013-09-04 08:58:00,
2013-09-04 05:03:00,71.8,71.8,30.00,North,0,0.0,2.0,100,0.00,,---,0.00,VWS V14.01,2013-09-04 09:03:00,
2013-09-04 05:08:00,71.8,71.8,30.00,North,0,0.0,2.0,100,0.00,,---,0.00,VWS V14.01,2013-09-04 09:08:00,
2013-09-04 05:13:00,71.8,71.8,30.00,North,0,0.0,2.0,100,0.00,,---,0.00,VWS V14.01,2013-09-04 09:13:00,
2013-09-04 05:18:00,71.8,71.8,30.00,North,0,0.0,2.0,100,0.00,,---,0.00,VWS V14.01,2013-09-04 09:18:00,
2013-09-04 05:23:00,71.9,71.9,30.00,North,0,1.0,2.0,100,0.00,,---,0.00,VWS V14.01,2013-09-04 09:23:00,
2013-09-04 05:28:00,71.9,71.9,29.99,North,0,1.0,2.0,100,0.00,,---,0.00,VWS V14.01,2013-09-04 09:28:00,
2013-09-04 05:33:00,72.0,72.0,29.99,North,0,3.0,3.0,100,0.00,,---,0.00,VWS V14.01,2013-09-04 09:33:00,
2013-09-04 05:38:00,72.0,72.0,29.99,North,359,1.0,3.0,100,0.00,,---,0.00,VWS V14.01,2013-09-04 09:38:00,
2013-09-04 05:43:00,72.1,72.1,30.00,North,0,1.0,3.0,100,0.00,,---,0.00,VWS V14.01,2013-09-04 09:43:00,
2013-09-04 05:48:00,72.2,72.2,30.00,North,0,0.0,3.0,100,0.00,,---,0.00,VWS V14.01,2013-09-04 09:48:00,
2013-09-04 05:53:00,72.2,72.2,30.00,North,0,1.0,3.0,100,0.00,,---,0.00,VWS V14.01,2013-09-04 09:53:00,
2013-09-04 05:58:00,72.1,72.1,30.00,North,8,2.0,3.0,100,0.00,,---,0.00,VWS V14.01,2013-09-04 09:58:00,
2013-09-04 06:03:00,72.1,72.1,30.00,North,9,2.0,3.0,100,0.00,,---,0.00,VWS V14.01,2013-09-04 10:03:00,
2013-09-04 06:08:00,72.0,72.0,30.00,North,3,0.0,3.0,100,0.00,,---,0.00,VWS V14.01,2013-09-04 10:08:00,
2013-09-04 06:13:00,72.0,72.0,30.01,North,0,0.0,3.0,100,0.00,,---,0.00,VWS V14.01,2013-09-04 10:13:00,
2013-09-04 06:18:00,72.0,72.0,30.00,North,1,0.0,3.0,100,0.00,,---,0.00,VWS V14.01,2013-09-04 10:18:00,
2013-09-04 06:23:00,71.9,71.9,30.00,North,0,0.0,3.0,100,0.00,,---,0.00,VWS V14.01,2013-09-04 10:23:00,
2013-09-04 06:28:00,71.9,71.9,30.01,North,0,0.0,3.0,100,0.00,,---,0.00,VWS V14.01,2013-09-04 10:28:00,
2013-09-04 06:33:00,71.8,71.8,30.01,North,0,0.0,1.0,100,0.00,,---,0.00,VWS V14.01,2013-09-04 10:33:00,
2013-09-04 06:38:00,71.7,71.7,30.01,North,0,0.0,1.0,100,0.00,,---,0.00,VWS V14.01,2013-09-04 10:38:00,
2013-09-04 06:43:00,71.7,71.7,30.01,North,0,0.0,1.0,100,0.00,,---,0.00,VWS V14.01,2013-09-04 10:43:00,
2013-09-04 06:48:00,71.7,71.7,30.01,North,0,0.0,1.0,100,0.00,,---,0.00,VWS V14.01,2013-09-04 10:48:00,
2013-09-04 06:53:00,71.7,71.7,30.01,North,0,0.0,1.0,100,0.00,,---,0.00,VWS V14.01,2013-09-04 10:53:00,
2013-09-04 06:58:00,71.6,71.6,30.01,North,0,0.0,1.0,100,0.00,,---,0.00,VWS V14.01,2013-09-04 10:58:00,
2013-09-04 07:03:00,71.6,71.6,30.01,North,0,0.0,0.0,100,0.00,,---,0.00,VWS V14.01,2013-09-04 11:03:00,
2013-09-04 07:08:00,71.5,71.5,30.02,North,0,0.0,0.0,100,0.00,,---,0.00,VWS V14.01,2013-09-04 11:08:00,
2013-09-04 07:13:00,71.4,71.4,30.02,North,0,0.0,0.0,100,0.00,,---,0.00,VWS V14.01,2013-09-04 11:13:00,
2013-09-04 07:18:00,71.4,71.4,30.02,North,0,0.0,0.0,100,0.00,,---,0.00,VWS V14.01,2013-09-04 11:18:00,
2013-09-04 07:23:00,71.4,71.4,30.03,North,0,0.0,0.0,100,0.00,,---,0.00,VWS V14.01,2013-09-04 11:23:00,
2013-09-04 07:28:00,71.5,71.5,30.03,North,1,2.0,2.0,100,0.00,,---,0.00,VWS V14.01,2013-09-04 11:28:00,
2013-09-04 07:33:00,71.5,71.5,30.03,North,0,0.0,1.0,100,0.00,,---,0.00,VWS V14.01,2013-09-04 11:33:00,
2013-09-04 07:38:00,71.5,71.5,30.03,North,7,3.0,5.0,100,0.00,,---,0.00,VWS V14.01,2013-09-04 11:38:00,
2013-09-04 07:43:00,71.6,71.6,30.03,North,0,1.0,5.0,100,0.00,,---,0.00,VWS V14.01,2013-09-04 11:43:00,
2013-09-04 07:48:00,71.6,71.6,30.04,North,11,2.0,5.0,100,0.00,,---,0.00,VWS V14.01,2013-09-04 11:48:00,
2013-09-04 07:53:00,71.7,71.7,30.04,NNE,15,4.0,5.0,100,0.00,,---,0.00,VWS V14.01,2013-09-04 11:53:00,
2013-09-04 07:58:00,71.7,71.7,30.04,North,6,4.0,7.0,100,0.00,,---,0.00,VWS V14.01,2013-09-04 11:58:00,
2013-09-04 08:03:00,71.9,71.9,30.04,NNE,21,4.0,7.0,100,0.00,,---,0.00,VWS V14.01,2013-09-04 12:03:00,
2013-09-04 08:08:00,72.0,72.0,30.04,North,8,5.0,7.0,100,0.00,,---,0.00,VWS V14.01,2013-09-04 12:08:00,
2013-09-04 08:13:00,72.1,72.1,30.05,NNE,31,4.0,8.0,100,0.00,,---,0.00,VWS V14.01,2013-09-04 12:13:00,
2013-09-04 08:18:00,72.1,72.1,30.05,NE,35,5.0,8.0,100,0.00,,---,0.00,VWS V14.01,2013-09-04 12:18:00,
2013-09-04 08:23:00,72.2,72.2,30.05,North,10,3.0,8.0,100,0.00,,---,0.00,VWS V14.01,2013-09-04 12:23:00,
2013-09-04 08:28:00,72.3,72.3,30.05,NE,46,6.0,8.0,100,0.00,,---,0.00,VWS V14.01,2013-09-04 12:28:00,
2013-09-04 08:33:00,72.4,72.4,30.06,NE,37,6.0,8.0,100,0.00,,---,0.00,VWS V14.01,2013-09-04 12:33:00,
2013-09-04 08:38:00,72.5,72.5,30.06,NNE,28,4.0,8.0,100,0.00,,---,0.00,VWS V14.01,2013-09-04 12:38:00,
2013-09-04 08:43:00,72.5,72.5,30.06,NNE,20,6.0,8.0,100,0.00,,---,0.00,VWS V14.01,2013-09-04 12:43:00,
2013-09-04 08:48:00,72.6,72.6,30.06,NE,49,3.0,8.0,100,0.00,,---,0.00,VWS V14.01,2013-09-04 12:48:00,
2013-09-04 08:53:00,72.7,72.7,30.07,NE,52,4.0,8.0,100,0.00,,---,0.00,VWS V14.01,2013-09-04 12:53:00,
2013-09-04 08:58:00,72.7,72.7,30.07,NE,40,4.0,8.0,100,0.00,,---,0.00,VWS V14.01,2013-09-04 12:58:00,
2013-09-04 09:03:00,72.8,72.8,30.07,NE,36,6.0,7.0,100,0.00,,---,0.00,VWS V14.01,2013-09-04 13:03:00,
2013-09-04 09:08:00,72.9,72.9,30.06,NE,44,6.0,8.0,100,0.00,,---,0.00,VWS V14.01,2013-09-04 13:08:00,
2013-09-04 09:13:00,73.0,73.0,30.07,NE,41,4.0,8.0,100,0.00,,---,0.00,VWS V14.01,2013-09-04 13:13:00,
2013-09-04 09:18:00,73.2,73.2,30.07,NE,38,5.0,8.0,100,0.00,,---,0.00,VWS V14.01,2013-09-04 13:18:00,
2013-09-04 09:23:00,73.2,73.2,30.07,NE,40,5.0,8.0,100,0.00,,---,0.00,VWS V14.01,2013-09-04 13:23:00,
2013-09-04 09:28:00,73.3,73.3,30.07,ENE,69,4.0,8.0,100,0.00,,---,0.00,VWS V14.01,2013-09-04 13:28:00,
2013-09-04 09:33:00,73.3,73.3,30.07,NE,39,7.0,8.0,100,0.00,,---,0.00,VWS V14.01,2013-09-04 13:33:00,
2013-09-04 09:38:00,73.4,73.4,30.08,ENE,67,5.0,8.0,100,0.00,,---,0.00,VWS V14.01,2013-09-04 13:38:00,
2013-09-04 09:43:00,73.5,73.5,30.08,NE,48,2.0,8.0,100,0.00,,---,0.00,VWS V14.01,2013-09-04 13:43:00,
2013-09-04 09:48:00,73.6,73.6,30.07,NE,45,3.0,8.0,100,0.00,,---,0.00,VWS V14.01,2013-09-04 13:48:00,
2013-09-04 09:53:00,73.6,73.6,30.08,ENE,61,3.0,8.0,100,0.01,,---,0.01,VWS V14.01,2013-09-04 13:53:00,
2013-09-04 09:58:00,73.8,73.8,30.08,NE,56,2.0,8.0,100,0.01,,---,0.01,VWS V14.01,2013-09-04 13:58:00,
2013-09-04 10:03:00,73.9,73.9,30.08,ENE,61,3.0,5.0,100,0.01,,---,0.01,VWS V14.01,2013-09-04 14:03:00,
2013-09-04 10:08:00,74.1,74.1,30.08,East,89,2.0,7.0,100,0.01,,---,0.01,VWS V14.01,2013-09-04 14:08:00,
2013-09-04 10:13:00,74.2,74.2,30.08,ENE,64,5.0,7.0,100,0.01,,---,0.01,VWS V14.01,2013-09-04 14:13:00,
2013-09-04 10:18:00,74.3,74.3,30.08,ENE,57,2.0,7.0,100,0.01,,---,0.01,VWS V14.01,2013-09-04 14:18:00,
2013-09-04 10:23:00,74.4,74.4,30.08,ENE,66,0.0,7.0,100,0.01,,---,0.01,VWS V14.01,2013-09-04 14:23:00,
2013-09-04 10:28:00,74.7,74.7,30.09,ENE,78,2.0,7.0,100,0.01,,---,0.01,VWS V14.01,2013-09-04 14:28:00,
2013-09-04 10:33:00,75.1,75.1,30.09,ESE,121,0.0,4.0,100,0.01,,---,0.01,VWS V14.01,2013-09-04 14:33:00,
2013-09-04 10:38:00,75.2,75.2,30.09,ENE,65,2.0,5.0,100,0.01,,---,0.01,VWS V14.01,2013-09-04 14:38:00,
2013-09-04 10:43:00,75.5,75.5,30.09,ESE,123,0.0,5.0,100,0.01,,---,0.01,VWS V14.01,2013-09-04 14:43:00,
2013-09-04 10:48:00,75.6,75.6,30.09,ESE,107,2.0,5.0,100,0.01,,---,0.01,VWS V14.01,2013-09-04 14:48:00,
2013-09-04 10:53:00,75.9,75.9,30.09,ESE,115,0.0,5.0,100,0.01,,---,0.01,VWS V14.01,2013-09-04 14:53:00,
2013-09-04 10:58:00,76.2,76.2,30.09,ESE,118,0.0,5.0,100,0.01,,---,0.01,VWS V14.01,2013-09-04 14:58:00,
2013-09-04 11:03:00,76.2,76.2,30.09,ENE,69,0.0,3.0,100,0.00,,---,0.01,VWS V14.01,2013-09-04 15:03:00,
2013-09-04 11:08:00,76.3,76.3,30.09,ENE,75,0.0,3.0,100,0.00,,---,0.01,VWS V14.01,2013-09-04 15:08:00,
2013-09-04 11:13:00,76.3,76.3,30.09,ENE,58,0.0,3.0,100,0.00,,---,0.01,VWS V14.01,2013-09-04 15:13:00,
2013-09-04 11:18:00,76.6,76.6,30.09,East,83,2.0,3.0,100,0.00,,---,0.01,VWS V14.01,2013-09-04 15:18:00,
2013-09-04 11:23:00,76.6,76.6,30.10,ENE,73,0.0,6.0,100,0.00,,---,0.01,VWS V14.01,2013-09-04 15:23:00,
2013-09-04 11:28:00,76.6,76.6,30.09,NE,52,3.0,6.0,100,0.00,,---,0.01,VWS V14.01,2013-09-04 15:28:00,
2013-09-04 11:33:00,76.7,76.7,30.10,ENE,69,2.0,5.0,100,0.00,,---,0.01,VWS V14.01,2013-09-04 15:33:00,
2013-09-04 11:38:00,76.7,76.7,30.09,ENE,67,3.0,5.0,100,0.00,,---,0.01,VWS V14.01,2013-09-04 15:38:00,
2013-09-04 11:43:00,76.8,76.8,30.10,East,90,4.0,5.0,100,0.00,,---,0.01,VWS V14.01,2013-09-04 15:43:00,
2013-09-04 11:48:00,76.9,76.9,30.09,ENE,71,0.0,6.0,100,0.00,,---,0.01,VWS V14.01,2013-09-04 15:48:00,
2013-09-04 11:53:00,77.0,77.0,30.10,ENE,64,2.0,6.0,100,0.00,,---,0.01,VWS V14.01,2013-09-04 15:53:00,
2013-09-04 11:58:00,77.2,77.2,30.10,East,86,3.0,6.0,100,0.00,,---,0.01,VWS V14.01,2013-09-04 15:58:00,
2013-09-04 12:03:00,77.5,77.5,30.10,ESE,117,2.0,5.0,100,0.00,,---,0.01,VWS V14.01,2013-09-04 16:03:00,
2013-09-04 12:08:00,77.9,77.9,30.10,East,98,3.0,5.0,100,0.00,,---,0.01,VWS V14.01,2013-09-04 16:08:00,
2013-09-04 12:13:00,78.0,78.0,30.10,ESE,105,3.0,6.0,100,0.00,,---,0.01,VWS V14.01,2013-09-04 16:13:00,
2013-09-04 12:18:00,78.3,78.3,30.09,East,98,0.0,6.0,100,0.00,,---,0.01,VWS V14.01,2013-09-04 16:18:00,
2013-09-04 12:23:00,78.4,78.4,30.09,East,98,0.0,7.0,100,0.00,,---,0.01,VWS V14.01,2013-09-04 16:23:00,
2013-09-04 12:28:00,78.6,78.6,30.10,East,98,0.0,8.0,100,0.00,,---,0.01,VWS V14.01,2013-09-04 16:28:00,
2013-09-04 12:33:00,78.7,78.7,30.10,ESE,111,1.0,8.0,100,0.00,,---,0.01,VWS V14.01,2013-09-04 16:33:00,
2013-09-04 12:38:00,78.9,78.9,30.10,ESE,108,4.0,8.0,100,0.00,,---,0.01,VWS V14.01,2013-09-04 16:38:00,
2013-09-04 12:43:00,79.0,79.0,30.10,ESE,110,0.0,8.0,100,0.00,,---,0.01,VWS V14.01,2013-09-04 16:43:00,
2013-09-04 12:48:00,79.1,79.1,30.10,ESE,107,0.0,9.0,100,0.00,,---,0.01,VWS V14.01,2013-09-04 16:48:00,
2013-09-04 12:53:00,79.2,79.2,30.10,ESE,104,4.0,9.0,100,0.00,,---,0.01,VWS V14.01,2013-09-04 16:53:00,
2013-09-04 12:58:00,79.3,79.3,30.10,East,97,5.0,9.0,100,0.00,,---,0.01,VWS V14.01,2013-09-04 16:58:00,
2013-09-04 13:03:00,79.5,79.5,30.09,ESE,115,1.0,5.0,100,0.00,,---,0.01,VWS V14.01,2013-09-04 17:03:00,
2013-09-04 13:08:00,79.6,79.6,30.09,ESE,119,3.0,7.0,100,0.00,,---,0.01,VWS V14.01,2013-09-04 17:08:00,
2013-09-04 13:13:00,79.8,79.8,30.10,East,85,4.0,7.0,100,0.00,,---,0.01,VWS V14.01,2013-09-04 17:13:00,
2013-09-04 13:18:00,79.9,79.9,30.09,East,92,2.0,7.0,100,0.00,,---,0.01,VWS V14.01,2013-09-04 17:18:00,
2013-09-04 13:23:00,80.0,80.0,30.09,East,101,0.0,7.0,100,0.00,,---,0.01,VWS V14.01,2013-09-04 17:23:00,
2013-09-04 13:28:00,80.2,80.2,30.09,East,94,1.0,7.0,100,0.00,,---,0.01,VWS V14.01,2013-09-04 17:28:00,
2013-09-04 13:33:00,80.2,80.2,30.09,East,101,0.0,3.0,100,0.00,,---,0.01,VWS V14.01,2013-09-04 17:33:00,
2013-09-04 13:38:00,80.4,80.4,30.09,East,92,3.0,6.0,100,0.00,,---,0.01,VWS V14.01,2013-09-04 17:38:00,
2013-09-04 13:43:00,80.4,80.4,30.09,East,82,4.0,6.0,100,0.00,,---,0.01,VWS V14.01,2013-09-04 17:43:00,
2013-09-04 13:48:00,80.5,80.5,30.09,ENE,77,3.0,6.0,100,0.00,,---,0.01,VWS V14.01,2013-09-04 17:48:00,
2013-09-04 13:53:00,80.6,80.6,30.09,East,89,2.0,7.0,100,0.00,,---,0.01,VWS V14.01,2013-09-04 17:53:00,
2013-09-04 13:57:00,80.7,80.7,30.08,ENE,77,0.0,7.0,100,0.00,,---,0.01,VWS V14.01,2013-09-04 17:57:00,
2013-09-04 14:02:00,80.6,80.6,30.09,East,93,0.0,6.0,100,0.00,,---,0.01,VWS V14.01,2013-09-04 18:02:00,
2013-09-04 14:07:00,80.7,80.7,30.09,ESE,115,0.0,6.0,100,0.00,,---,0.01,VWS V14.01,2013-09-04 18:07:00,
2013-09-04 14:12:00,80.8,80.8,30.08,ESE,119,3.0,6.0,100,0.00,,---,0.01,VWS V14.01,2013-09-04 18:12:00,
2013-09-04 14:17:00,80.9,80.9,30.08,ESE,116,1.0,7.0,100,0.00,,---,0.01,VWS V14.01,2013-09-04 18:17:00,
2013-09-04 14:22:00,81.1,81.1,30.08,SE,130,6.0,7.0,100,0.00,,---,0.01,VWS V14.01,2013-09-04 18:22:00,
2013-09-04 14:27:00,81.2,81.2,30.08,SSE,160,2.0,9.0,100,0.00,,---,0.01,VWS V14.01,2013-09-04 18:27:00,
2013-09-04 14:32:00,81.5,81.5,30.08,ESE,119,7.0,9.0,100,0.00,,---,0.01,VWS V14.01,2013-09-04 18:32:00,
2013-09-04 14:37:00,81.6,81.6,30.08,SE,125,6.0,10.0,100,0.00,,---,0.01,VWS V14.01,2013-09-04 18:37:00,
2013-09-04 14:42:00,81.7,81.7,30.08,SE,130,5.0,10.0,100,0.00,,---,0.01,VWS V14.01,2013-09-04 18:42:00,
2013-09-04 14:47:00,81.8,81.8,30.08,SSE,156,0.0,10.0,100,0.00,,---,0.01,VWS V14.01,2013-09-04 18:47:00,
2013-09-04 14:52:00,81.9,81.9,30.08,ESE,119,6.0,10.0,100,0.00,,---,0.01,VWS V14.01,2013-09-04 18:52:00,
2013-09-04 14:57:00,82.0,82.0,30.08,SE,124,6.0,10.0,100,0.00,,---,0.01,VWS V14.01,2013-09-04 18:57:00,
2013-09-04 15:02:00,82.0,82.0,30.08,SE,132,4.0,9.0,100,0.00,,---,0.01,VWS V14.01,2013-09-04 19:02:00,
2013-09-04 15:07:00,82.1,82.1,30.08,ESE,120,5.0,10.0,100,0.00,,---,0.01,VWS V14.01,2013-09-04 19:07:00,
2013-09-04 15:12:00,82.1,82.1,30.07,SSE,148,3.0,10.0,100,0.00,,---,0.01,VWS V14.01,2013-09-04 19:12:00,
2013-09-04 15:17:00,82.2,82.2,30.07,ESE,121,6.0,10.0,100,0.00,,---,0.01,VWS V14.01,2013-09-04 19:17:00,
2013-09-04 15:22:00,82.2,82.2,30.07,SSE,156,0.0,10.0,100,0.00,,---,0.01,VWS V14.01,2013-09-04 19:22:00,
2013-09-04 15:27:00,82.3,82.3,30.07,SSE,166,3.0,10.0,100,0.00,,---,0.01,VWS V14.01,2013-09-04 19:27:00,
2013-09-04 15:32:00,82.4,82.4,30.07,SE,130,4.0,7.0,100,0.00,,---,0.01,VWS V14.01,2013-09-04 19:32:00,
2013-09-04 15:37:00,82.5,82.5,30.07,SE,129,3.0,10.0,100,0.00,,---,0.01,VWS V14.01,2013-09-04 19:37:00,
2013-09-04 15:42:00,82.4,82.4,30.07,SSE,149,4.0,10.0,100,0.00,,---,0.01,VWS V14.01,2013-09-04 19:42:00,
2013-09-04 15:47:00,82.5,82.5,30.07,SE,132,7.0,10.0,100,0.00,,---,0.01,VWS V14.01,2013-09-04 19:47:00,
2013-09-04 15:52:00,82.4,82.4,30.07,SE,136,3.0,10.0,100,0.00,,---,0.01,VWS V14.01,2013-09-04 19:52:00,
2013-09-04 15:57:00,82.4,82.4,30.07,SSE,159,7.0,10.0,100,0.00,,---,0.01,VWS V14.01,2013-09-04 19:57:00,
2013-09-04 16:02:00,82.4,82.1,30.07,SE,128,2.0,9.0,99,0.00,,---,0.01,VWS V14.01,2013-09-04 20:02:00,
2013-09-04 16:07:00,82.4,82.4,30.07,SSE,153,6.0,11.0,100,0.00,,---,0.01,VWS V14.01,2013-09-04 20:07:00,
2013-09-04 16:12:00,82.3,82.3,30.06,SSE,167,7.0,11.0,100,0.00,,---,0.01,VWS V14.01,2013-09-04 20:12:00,
2013-09-04 16:17:00,82.3,82.3,30.06,South,169,2.0,11.0,100,0.00,,---,0.01,VWS V14.01,2013-09-04 20:17:00,
2013-09-04 16:22:00,82.3,82.3,30.07,SE,137,1.0,11.0,100,0.00,,---,0.01,VWS V14.01,2013-09-04 20:22:00,
2013-09-04 16:27:00,82.4,82.4,30.07,East,94,3.0,11.0,100,0.00,,---,0.01,VWS V14.01,2013-09-04 20:27:00,
2013-09-04 16:32:00,82.3,82.3,30.06,ESE,104,1.0,3.0,100,0.00,,---,0.01,VWS V14.01,2013-09-04 20:32:00,
2013-09-04 16:37:00,82.3,82.3,30.06,SE,135,4.0,9.0,100,0.00,,---,0.01,VWS V14.01,2013-09-04 20:37:00,
2013-09-04 16:42:00,82.1,81.8,30.06,SE,138,0.0,9.0,99,0.00,,---,0.01,VWS V14.01,2013-09-04 20:42:00,
2013-09-04 16:47:00,82.1,81.8,30.07,SSE,151,3.0,9.0,99,0.00,,---,0.01,VWS V14.01,2013-09-04 20:47:00,
2013-09-04 16:52:00,82.0,81.7,30.06,ESE,118,2.0,9.0,99,0.00,,---,0.01,VWS V14.01,2013-09-04 20:52:00,
2013-09-04 16:57:00,81.9,81.6,30.07,SE,134,1.0,9.0,99,0.00,,---,0.01,VWS V14.01,2013-09-04 20:57:00,
2013-09-04 17:02:00,81.8,81.5,30.06,SE,136,0.0,4.0,99,0.00,,---,0.01,VWS V14.01,2013-09-04 21:02:00,
2013-09-04 17:07:00,81.8,81.5,30.06,SE,146,0.0,7.0,99,0.00,,---,0.01,VWS V14.01,2013-09-04 21:07:00,
2013-09-04 17:12:00,81.8,81.8,30.06,SSE,167,0.0,7.0,100,0.00,,---,0.01,VWS V14.01,2013-09-04 21:12:00,
2013-09-04 17:17:00,81.7,81.4,30.06,SE,127,4.0,10.0,99,0.00,,---,0.01,VWS V14.01,2013-09-04 21:17:00,
2013-09-04 17:22:00,81.7,81.4,30.07,SE,146,5.0,11.0,99,0.00,,---,0.01,VWS V14.01,2013-09-04 21:22:00,
2013-09-04 17:27:00,81.7,81.4,30.06,SE,140,1.0,11.0,99,0.00,,---,0.01,VWS V14.01,2013-09-04 21:27:00,
2013-09-04 17:32:00,81.6,81.0,30.06,ESE,122,5.0,7.0,98,0.00,,---,0.01,VWS V14.01,2013-09-04 21:32:00,
2013-09-04 17:37:00,81.5,80.6,30.06,ESE,120,1.0,10.0,97,0.00,,---,0.01,VWS V14.01,2013-09-04 21:37:00,
2013-09-04 17:42:00,81.4,80.8,30.06,SE,124,4.0,10.0,98,0.00,,---,0.01,VWS V14.01,2013-09-04 21:42:00,
2013-09-04 17:47:00,81.2,80.6,30.06,SE,134,7.0,10.0,98,0.00,,---,0.01,VWS V14.01,2013-09-04 21:47:00,
2013-09-04 17:52:00,81.1,80.5,30.05,SE,139,6.0,10.0,98,0.00,,---,0.01,VWS V14.01,2013-09-04 21:52:00,
2013-09-04 17:57:00,81.0,80.1,30.06,SSE,156,4.0,10.0,97,0.00,,---,0.01,VWS V14.01,2013-09-04 21:57:00,
2013-09-04 18:02:00,80.8,80.2,30.06,SE,131,5.0,8.0,98,0.00,,---,0.01,VWS V14.01,2013-09-04 22:02:00,
2013-09-04 18:07:00,80.7,80.1,30.06,SE,127,2.0,10.0,98,0.00,,---,0.01,VWS V14.01,2013-09-04 22:07:00,
2013-09-04 18:12:00,80.6,80.0,30.06,SE,126,1.0,10.0,98,0.00,,---,0.01,VWS V14.01,2013-09-04 22:12:00,
2013-09-04 18:17:00,80.5,79.9,30.06,ESE,123,0.0,10.0,98,0.00,,---,0.01,VWS V14.01,2013-09-04 22:17:00,
2013-09-04 18:22:00,80.4,80.1,30.06,SE,126,3.0,10.0,99,0.00,,---,0.01,VWS V14.01,2013-09-04 22:22:00,
2013-09-04 18:27:00,80.3,80.0,30.07,SSE,156,5.0,10.0,99,0.00,,---,0.01,VWS V14.01,2013-09-04 22:27:00,
2013-09-04 18:32:00,80.1,79.8,30.07,SE,127,3.0,8.0,99,0.00,,---,0.01,VWS V14.01,2013-09-04 22:32:00,
2013-09-04 18:37:00,80.0,79.7,30.07,ESE,119,0.0,8.0,99,0.00,,---,0.01,VWS V14.01,2013-09-04 22:37:00,
2013-09-04 18:42:00,79.9,79.9,30.07,SE,136,0.0,8.0,100,0.00,,---,0.01,VWS V14.01,2013-09-04 22:42:00,
2013-09-04 18:47:00,79.8,79.8,30.07,SE,141,0.0,8.0,100,0.00,,---,0.01,VWS V14.01,2013-09-04 22:47:00,
2013-09-04 18:52:00,79.7,79.7,30.07,SE,145,0.0,8.0,100,0.00,,---,0.01,VWS V14.01,2013-09-04 22:52:00,
2013-09-04 18:57:00,79.6,79.6,30.07,SE,143,0.0,9.0,100,0.00,,---,0.01,VWS V14.01,2013-09-04 22:57:00,
2013-09-04 19:02:00,79.5,79.5,30.07,ESE,108,0.0,0.0,100,0.00,,---,0.01,VWS V14.01,2013-09-04 23:02:00,
2013-09-04 19:07:00,79.3,79.3,30.07,SE,131,1.0,3.0,100,0.00,,---,0.01,VWS V14.01,2013-09-04 23:07:00,
2013-09-04 19:12:00,79.2,79.2,30.07,SE,130,0.0,4.0,100,0.00,,---,0.01,VWS V14.01,2013-09-04 23:12:00,
2013-09-04 19:17:00,79.0,79.0,30.07,SSE,161,0.0,5.0,100,0.00,,---,0.01,VWS V14.01,2013-09-04 23:17:00,
2013-09-04 19:22:00,78.9,78.9,30.07,SE,127,0.0,5.0,100,0.00,,---,0.01,VWS V14.01,2013-09-04 23:22:00,
2013-09-04 19:27:00,78.7,78.7,30.07,SSE,152,0.0,5.0,100,0.00,,---,0.01,VWS V14.01,2013-09-04 23:27:00,
2013-09-04 19:32:00,78.6,78.6,30.07,SE,128,4.0,7.0,100,0.00,,---,0.01,VWS V14.01,2013-09-04 23:32:00,
2013-09-04 19:37:00,78.5,78.5,30.07,SE,125,0.0,8.0,100,0.00,,---,0.01,VWS V14.01,2013-09-04 23:37:00,
2013-09-04 19:42:00,78.4,78.4,30.07,SSE,147,0.0,8.0,100,0.00,,---,0.01,VWS V14.01,2013-09-04 23:42:00,
2013-09-04 19:47:00,78.2,78.2,30.07,SE,137,0.0,8.0,100,0.00,,---,0.01,VWS V14.01,2013-09-04 23:47:00,
2013-09-04 19:52:00,78.2,78.2,30.07,SE,127,0.0,8.0,100,0.00,,---,0.01,VWS V14.01,2013-09-04 23:52:00,
2013-09-04 19:57:00,78.1,78.1,30.07,SSE,157,5.0,9.0,100,0.00,,---,0.01,VWS V14.01,2013-09-04 23:57:00,
2013-09-04 20:02:00,78.0,78.0,30.07,SSE,159,8.0,8.0,100,0.00,,---,0.01,VWS V14.01,2013-09-05 00:02:00,
2013-09-04 20:07:00,77.9,77.9,30.08,SSE,162,5.0,10.0,100,0.00,,---,0.01,VWS V14.01,2013-09-05 00:07:00,
2013-09-04 20:12:00,77.9,77.9,30.08,SSE,156,4.0,10.0,100,0.00,,---,0.01,VWS V14.01,2013-09-05 00:12:00,
2013-09-04 20:17:00,77.7,77.7,30.08,SSE,149,1.0,10.0,100,0.00,,---,0.01,VWS V14.01,2013-09-05 00:17:00,
2013-09-04 20:22:00,77.7,77.7,30.08,SSE,155,5.0,10.0,100,0.00,,---,0.01,VWS V14.01,2013-09-05 00:22:00,
2013-09-04 20:27:00,77.6,77.6,30.08,SSE,157,6.0,10.0,100,0.00,,---,0.01,VWS V14.01,2013-09-05 00:27:00,
2013-09-04 20:32:00,77.5,77.5,30.08,SSE,147,3.0,6.0,100,0.00,,---,0.01,VWS V14.01,2013-09-05 00:32:00,
2013-09-04 20:37:00,77.5,77.5,30.08,SSE,153,2.0,8.0,100,0.00,,---,0.01,VWS V14.01,2013-09-05 00:37:00,
2013-09-04 20:42:00,77.4,77.4,30.09,SSE,149,5.0,9.0,100,0.00,,---,0.01,VWS V14.01,2013-09-05 00:42:00,
2013-09-04 20:47:00,77.4,77.4,30.09,SSE,149,0.0,9.0,100,0.00,,---,0.01,VWS V14.01,2013-09-05 00:47:00,
2013-09-04 20:52:00,77.3,77.3,30.09,SSE,163,0.0,9.0,100,0.00,,---,0.01,VWS V14.01,2013-09-05 00:52:00,
2013-09-04 20:57:00,77.3,77.3,30.10,SSE,163,0.0,9.0,100,0.00,,---,0.01,VWS V14.01,2013-09-05 00:57:00,
2013-09-04 21:02:00,77.1,77.1,30.09,South,170,0.0,0.0,100,0.00,,---,0.01,VWS V14.01,2013-09-05 01:02:00,
2013-09-04 21:07:00,77.1,77.1,30.10,South,170,0.0,3.0,100,0.00,,---,0.01,VWS V14.01,2013-09-05 01:07:00,
2013-09-04 21:12:00,77.0,77.0,30.10,South,175,0.0,4.0,100,0.00,,---,0.01,VWS V14.01,2013-09-05 01:12:00,
2013-09-04 21:17:00,76.9,76.9,30.09,SSE,163,0.0,4.0,100,0.00,,---,0.01,VWS V14.01,2013-09-05 01:17:00,
2013-09-04 21:22:00,76.9,76.9,30.10,SSE,166,0.0,7.0,100,0.00,,---,0.01,VWS V14.01,2013-09-05 01:22:00,
2013-09-04 21:27:00,76.8,76.8,30.09,SSE,168,7.0,7.0,100,0.00,,---,0.01,VWS V14.01,2013-09-05 01:27:00,
2013-09-04 21:32:00,76.7,76.7,30.10,SSE,153,0.0,6.0,100,0.00,,---,0.01,VWS V14.01,2013-09-05 01:32:00,
2013-09-04 21:37:00,76.7,76.7,30.10,SSE,164,3.0,6.0,100,0.00,,---,0.01,VWS V14.01,2013-09-05 01:37:00,
2013-09-04 21:42:00,76.7,76.7,30.10,South,178,0.0,6.0,100,0.00,,---,0.01,VWS V14.01,2013-09-05 01:42:00,
2013-09-04 21:47:00,76.7,76.7,30.10,South,177,1.0,8.0,100,0.00,,---,0.01,VWS V14.01,2013-09-05 01:47:00,
2013-09-04 21:52:00,76.7,76.7,30.10,South,172,0.0,8.0,100,0.00,,---,0.01,VWS V14.01,2013-09-05 01:52:00,
2013-09-04 21:57:00,76.6,76.6,30.10,SSE,165,0.0,8.0,100,0.00,,---,0.01,VWS V14.01,2013-09-05 01:57:00,
2013-09-04 22:02:00,76.6,76.6,30.10,South,179,0.0,5.0,100,0.00,,---,0.01,VWS V14.01,2013-09-05 02:02:00,
2013-09-04 22:07:00,76.6,76.6,30.10,South,179,2.0,6.0,100,0.00,,---,0.01,VWS V14.01,2013-09-05 02:07:00,
2013-09-04 22:12:00,76.6,76.6,30.10,South,172,0.0,6.0,100,0.00,,---,0.01,VWS V14.01,2013-09-05 02:12:00,
2013-09-04 22:17:00,76.5,76.5,30.10,South,172,3.0,6.0,100,0.00,,---,0.01,VWS V14.01,2013-09-05 02:17:00,
2013-09-04 22:22:00,76.5,76.5,30.10,South,170,0.0,6.0,100,0.00,,---,0.01,VWS V14.01,2013-09-05 02:22:00,
2013-09-04 22:27:00,76.5,76.5,30.11,South,170,0.0,6.0,100,0.00,,---,0.01,VWS V14.01,2013-09-05 02:27:00,
2013-09-04 22:32:00,76.4,76.4,30.11,South,170,0.0,0.0,100,0.00,,---,0.01,VWS V14.01,2013-09-05 02:32:00,
2013-09-04 22:37:00,76.4,76.4,30.11,South,173,0.0,0.0,100,0.00,,---,0.01,VWS V14.01,2013-09-05 02:37:00,
2013-09-04 22:42:00,76.3,76.3,30.11,South,173,0.0,1.0,100,0.00,,---,0.01,VWS V14.01,2013-09-05 02:42:00,
2013-09-04 22:47:00,76.3,76.3,30.11,South,177,0.0,3.0,100,0.00,,---,0.01,VWS V14.01,2013-09-05 02:47:00,
2013-09-04 22:52:00,76.3,76.3,30.10,South,184,0.0,5.0,100,0.00,,---,0.01,VWS V14.01,2013-09-05 02:52:00,
2013-09-04 22:57:00,76.3,76.3,30.11,South,185,0.0,5.0,100,0.00,,---,0.01,VWS V14.01,2013-09-05 02:57:00,
2013-09-04 23:02:00,76.2,76.2,30.10,South,186,0.0,1.0,100,0.00,,---,0.01,VWS V14.01,2013-09-05 03:02:00,
2013-09-04 23:07:00,76.2,76.2,30.10,South,186,0.0,5.0,100,0.00,,---,0.01,VWS V14.01,2013-09-05 03:07:00,
2013-09-04 23:12:00,76.1,76.1,30.11,South,186,0.0,5.0,100,0.00,,---,0.01,VWS V14.01,2013-09-05 03:12:00,
2013-09-04 23:17:00,76.1,76.1,30.10,South,188,0.0,5.0,100,0.00,,---,0.01,VWS V14.01,2013-09-05 03:17:00,
2013-09-04 23:22:00,76.0,76.0,30.10,South,181,0.0,5.0,100,0.00,,---,0.01,VWS V14.01,2013-09-05 03:22:00,
2013-09-04 23:27:00,76.0,76.0,30.10,South,181,0.0,5.0,100,0.00,,---,0.01,VWS V14.01,2013-09-05 03:27:00,
2013-09-04 23:32:00,76.0,76.0,30.10,South,180,0.0,4.0,100,0.00,,---,0.01,VWS V14.01,2013-09-05 03:32:00,
2013-09-04 23:37:00,75.9,75.9,30.10,South,180,0.0,4.0,100,0.00,,---,0.01,VWS V14.01,2013-09-05 03:37:00,
2013-09-04 23:42:00,76.0,76.0,30.11,South,181,0.0,4.0,100,0.00,,---,0.01,VWS V14.01,2013-09-05 03:42:00,
2013-09-04 23:47:00,75.9,75.9,30.11,South,181,0.0,4.0,100,0.00,,---,0.01,VWS V14.01,2013-09-05 03:47:00,
2013-09-04 23:52:00,75.9,75.9,30.10,South,180,0.0,4.0,100,0.00,,---,0.01,VWS V14.01,2013-09-05 03:52:00,
2013-09-04 23:57:00,75.8,75.8,30.10,South,181,0.0,4.0,100,0.00,,---,0.01,VWS V14.01,2013-09-05 03:57:00,